createdAt,value
2017-04-09T00:00:37.355Z,30.03
2017-04-09T00:01:36.504Z,27.53
2017-04-09T00:02:35.660Z,34.12
2017-04-09T00:03:35.481Z,27.22
2017-04-09T00:04:34.563Z,32.00
2017-04-09T00:05:33.779Z,28.23
2017-04-09T00:06:32.909Z,25.98
2017-04-09T00:07:32.100Z,30.12
2017-04-09T00:08:31.290Z,26.50
2017-04-09T00:09:30.400Z,34.65
2017-04-09T00:10:29.480Z,29.22
2017-04-09T00:11:28.655Z,30.43
2017-04-09T00:12:28.484Z,33.00
2017-04-09T00:13:27.607Z,33.87
2017-04-09T00:14:26.673Z,31.35
2017-04-09T00:15:25.732Z,36.53
2017-04-09T00:16:25.571Z,34.10
2017-04-09T00:17:24.651Z,30.23
2017-04-09T00:18:23.804Z,31.75
2017-04-09T00:19:23.623Z,31.47
2017-04-09T00:20:22.716Z,32.52
2017-04-09T00:21:21.847Z,32.40
2017-04-09T00:22:21.732Z,36.10
2017-04-09T00:23:21.572Z,30.15
2017-04-09T00:24:20.775Z,30.27
2017-04-09T00:25:19.923Z,32.13
2017-04-09T00:26:19.044Z,32.58
2017-04-09T00:27:18.119Z,31.40
2017-04-09T00:28:17.211Z,37.85
2017-04-09T00:29:16.314Z,32.52
2017-04-09T00:30:16.148Z,34.80
2017-04-09T00:31:15.271Z,36.40
2017-04-09T00:32:14.492Z,35.70
2017-04-09T00:33:13.479Z,25.55
2017-04-09T00:34:12.664Z,29.50
2017-04-09T00:35:11.836Z,29.10
2017-04-09T00:36:10.964Z,36.73
2017-04-09T00:37:09.993Z,28.37
2017-04-09T00:38:09.030Z,30.40
2017-04-09T00:39:08.192Z,39.30
2017-04-09T00:40:07.383Z,36.43
2017-04-09T00:41:06.502Z,34.92
2017-04-09T00:42:06.308Z,32.13
2017-04-09T00:43:07.944Z,36.37
2017-04-09T00:44:07.044Z,32.42
2017-04-09T00:45:06.104Z,33.50
2017-04-09T00:46:05.300Z,34.18
2017-04-09T00:47:04.415Z,34.07
2017-04-09T00:48:03.452Z,32.97
2017-04-09T00:49:02.527Z,35.17
2017-04-09T00:50:01.809Z,31.12
2017-04-09T00:51:00.939Z,30.53
2017-04-09T00:52:00.080Z,34.05
2017-04-09T00:52:59.224Z,34.77
2017-04-09T00:53:58.325Z,33.87
2017-04-09T00:54:57.460Z,31.73
2017-04-09T00:55:56.593Z,32.70
2017-04-09T00:56:55.675Z,33.68
2017-04-09T00:57:54.847Z,30.35
2017-04-09T00:58:53.924Z,31.30
2017-04-09T00:59:53.024Z,31.98
2017-04-09T01:00:52.185Z,29.42
2017-04-09T01:01:51.351Z,34.33
2017-04-09T01:02:50.487Z,37.45
2017-04-09T01:03:49.552Z,32.82
2017-04-09T01:04:48.747Z,31.25
2017-04-09T01:05:48.287Z,40.02
2017-04-09T01:06:47.364Z,36.23
2017-04-09T01:07:46.449Z,29.73
2017-04-09T01:08:45.636Z,32.98
2017-04-09T01:09:44.780Z,31.28
2017-04-09T01:10:44.653Z,33.68
2017-04-09T01:11:43.728Z,33.63
2017-04-09T01:12:42.809Z,32.12
2017-04-09T01:13:41.978Z,40.15
2017-04-09T01:14:41.079Z,34.78
2017-04-09T01:15:40.144Z,32.12
2017-04-09T01:16:39.647Z,35.55
2017-04-09T01:17:38.914Z,35.32
2017-04-09T01:18:37.999Z,27.25
2017-04-09T01:19:37.559Z,37.52
2017-04-09T01:20:36.602Z,31.07
2017-04-09T01:21:36.495Z,32.87
2017-04-09T01:22:36.251Z,30.22
2017-04-09T01:23:35.399Z,36.67
2017-04-09T01:24:34.608Z,35.33
2017-04-09T01:25:33.717Z,32.17
2017-04-09T01:26:33.533Z,30.68
2017-04-09T01:27:33.400Z,33.45
2017-04-09T01:28:32.520Z,38.08
2017-04-09T01:29:31.627Z,40.02
2017-04-09T01:30:30.812Z,38.18
2017-04-09T01:31:30.000Z,37.63
2017-04-09T01:32:29.254Z,45.33
2017-04-09T01:33:28.346Z,33.63
2017-04-09T01:34:27.355Z,40.35
2017-04-09T01:35:26.469Z,34.85
2017-04-09T01:36:25.543Z,31.92
2017-04-09T01:37:25.388Z,32.00
2017-04-09T01:38:24.510Z,37.07
2017-04-09T01:39:24.432Z,36.30
2017-04-09T01:40:23.631Z,35.32
2017-04-09T01:41:22.723Z,34.80
2017-04-09T01:42:21.872Z,30.53
2017-04-09T01:43:21.657Z,32.00
2017-04-09T01:44:20.799Z,38.22
2017-04-09T01:45:19.963Z,38.88
2017-04-09T01:46:19.108Z,38.38
2017-04-09T01:47:18.248Z,34.83
2017-04-09T01:48:17.367Z,33.48
2017-04-09T01:49:16.479Z,30.68
2017-04-09T01:50:15.579Z,31.78
2017-04-09T01:51:14.625Z,32.18
2017-04-09T01:52:13.696Z,44.58
2017-04-09T01:53:12.979Z,31.00
2017-04-09T01:54:12.139Z,40.93
2017-04-09T01:55:12.190Z,42.18
2017-04-09T01:56:11.288Z,37.23
2017-04-09T01:57:10.419Z,27.77
2017-04-09T01:58:09.488Z,39.28
2017-04-09T01:59:08.652Z,29.30
2017-04-09T02:00:08.584Z,35.60
2017-04-09T02:01:07.787Z,34.50
2017-04-09T02:02:06.811Z,34.37
2017-04-09T02:03:06.569Z,40.90
2017-04-09T02:04:05.781Z,38.13
2017-04-09T02:05:05.652Z,31.32
2017-04-09T02:06:04.792Z,38.98
2017-04-09T02:07:04.022Z,35.88
2017-04-09T02:08:03.193Z,31.17
2017-04-09T02:09:02.432Z,34.82
2017-04-09T02:10:01.526Z,36.12
2017-04-09T02:11:00.655Z,34.20
2017-04-09T02:11:59.783Z,39.27
2017-04-09T02:12:58.932Z,33.48
2017-04-09T02:13:58.139Z,34.07
2017-04-09T02:14:57.264Z,35.47
2017-04-09T02:15:56.337Z,31.20
2017-04-09T02:16:55.576Z,32.27
2017-04-09T02:17:54.676Z,30.65
2017-04-09T02:18:53.856Z,34.97
2017-04-09T02:19:52.973Z,36.55
2017-04-09T02:20:51.348Z,34.28
2017-04-09T02:21:51.330Z,31.27
2017-04-09T02:22:50.415Z,33.17
2017-04-09T02:23:49.583Z,36.63
2017-04-09T02:24:48.732Z,33.60
2017-04-09T02:25:47.788Z,31.80
2017-04-09T02:26:47.004Z,30.13
2017-04-09T02:27:46.222Z,36.47
2017-04-09T02:28:45.275Z,38.38
2017-04-09T02:29:44.436Z,28.80
2017-04-09T02:30:43.540Z,36.53
2017-04-09T02:31:42.592Z,32.27
2017-04-09T02:32:41.695Z,40.32
2017-04-09T02:33:40.728Z,38.45
2017-04-09T02:34:39.728Z,36.35
2017-04-09T02:35:38.838Z,30.40
2017-04-09T02:36:37.899Z,31.25
2017-04-09T02:37:37.834Z,33.40
2017-04-09T02:38:36.936Z,35.32
2017-04-09T02:39:36.044Z,35.97
2017-04-09T02:40:35.231Z,33.32
2017-04-09T02:41:34.323Z,30.70
2017-04-09T02:42:33.472Z,32.72
2017-04-09T02:43:32.595Z,30.83
2017-04-09T02:44:31.755Z,29.72
2017-04-09T02:45:30.953Z,31.25
2017-04-09T02:46:30.125Z,33.03
2017-04-09T02:47:29.241Z,32.38
2017-04-09T02:48:28.407Z,30.87
2017-04-09T02:49:27.509Z,32.30
2017-04-09T02:50:27.427Z,33.57
2017-04-09T02:51:26.535Z,38.23
2017-04-09T02:52:25.718Z,33.68
2017-04-09T02:53:24.868Z,32.07
2017-04-09T02:54:23.912Z,28.98
2017-04-09T02:55:22.983Z,27.20
2017-04-09T02:56:22.048Z,34.35
2017-04-09T02:57:21.172Z,32.92
2017-04-09T02:58:20.297Z,31.55
2017-04-09T02:59:19.452Z,30.93
2017-04-09T03:00:18.571Z,31.23
2017-04-09T03:01:18.512Z,30.47
2017-04-09T03:02:17.591Z,32.28
2017-04-09T03:03:16.664Z,33.42
2017-04-09T03:04:15.715Z,32.33
2017-04-09T03:05:14.813Z,34.60
2017-04-09T03:06:14.748Z,34.13
2017-04-09T03:07:13.842Z,29.95
2017-04-09T03:08:12.823Z,32.75
2017-04-09T03:09:11.896Z,29.90
2017-04-09T03:10:11.100Z,32.13
2017-04-09T03:11:10.222Z,31.02
2017-04-09T03:12:09.627Z,30.88
2017-04-09T03:13:08.704Z,37.57
2017-04-09T03:14:07.807Z,31.23
2017-04-09T03:15:06.977Z,27.60
2017-04-09T03:16:06.191Z,24.53
2017-04-09T03:17:05.349Z,31.20
2017-04-09T03:18:04.463Z,42.60
2017-04-09T03:19:03.637Z,32.53
2017-04-09T03:20:03.556Z,35.35
2017-04-09T03:21:03.475Z,30.08
2017-04-09T03:22:02.613Z,34.37
2017-04-09T03:23:01.627Z,31.80
2017-04-09T03:24:00.695Z,31.92
2017-04-09T03:25:00.563Z,41.15
2017-04-09T03:25:59.637Z,33.67
2017-04-09T03:26:58.740Z,32.33
2017-04-09T03:27:58.698Z,31.40
2017-04-09T03:28:57.780Z,29.33
2017-04-09T03:29:57.024Z,28.73
2017-04-09T03:30:56.074Z,32.03
2017-04-09T03:31:55.867Z,32.90
2017-04-09T03:32:55.805Z,32.35
2017-04-09T03:33:54.979Z,36.85
2017-04-09T03:34:54.081Z,27.12
2017-04-09T03:35:53.185Z,28.78
2017-04-09T03:36:52.397Z,28.13
2017-04-09T03:37:52.288Z,36.60
2017-04-09T03:38:52.094Z,31.15
2017-04-09T03:39:51.251Z,34.30
2017-04-09T03:40:50.468Z,30.87
2017-04-09T03:41:49.559Z,36.20
2017-04-09T03:42:48.556Z,41.20
2017-04-09T03:43:47.650Z,45.43
2017-04-09T03:44:46.804Z,31.88
2017-04-09T03:45:45.892Z,34.65
2017-04-09T03:46:45.068Z,31.35
2017-04-09T03:47:44.240Z,37.85
2017-04-09T03:48:43.324Z,38.97
2017-04-09T03:49:42.484Z,43.28
2017-04-09T03:50:41.607Z,35.13
2017-04-09T03:51:40.736Z,31.72
2017-04-09T03:52:39.840Z,29.22
2017-04-09T03:53:38.992Z,35.97
2017-04-09T03:54:38.091Z,32.10
2017-04-09T03:55:37.128Z,29.13
2017-04-09T03:56:37.003Z,37.07
2017-04-09T03:57:36.116Z,34.47
2017-04-09T03:58:35.971Z,36.73
2017-04-09T03:59:35.085Z,34.35
2017-04-09T04:00:35.020Z,28.42
2017-04-09T04:01:34.139Z,31.18
2017-04-09T04:02:33.360Z,32.20
2017-04-09T04:03:33.252Z,26.82
2017-04-09T04:04:33.076Z,26.47
2017-04-09T04:05:32.191Z,33.97
2017-04-09T04:06:31.260Z,32.00
2017-04-09T04:07:30.471Z,32.70
2017-04-09T04:08:29.500Z,30.60
2017-04-09T04:09:28.570Z,32.52
2017-04-09T04:10:27.669Z,28.47
2017-04-09T04:11:26.763Z,35.17
2017-04-09T04:12:25.884Z,29.33
2017-04-09T04:13:25.743Z,36.07
2017-04-09T04:14:24.760Z,31.88
2017-04-09T04:15:24.648Z,36.20
2017-04-09T04:16:23.752Z,29.85
2017-04-09T04:17:22.852Z,38.62
2017-04-09T04:18:21.932Z,31.57
2017-04-09T04:19:21.033Z,36.68
2017-04-09T04:20:20.103Z,27.95
2017-04-09T04:21:19.880Z,34.72
2017-04-09T04:22:18.999Z,30.03
2017-04-09T04:23:18.259Z,36.50
2017-04-09T04:24:17.403Z,30.53
2017-04-09T04:25:16.537Z,32.08
2017-04-09T04:26:15.615Z,33.48
2017-04-09T04:27:14.737Z,36.70
2017-04-09T04:28:13.820Z,36.68
2017-04-09T04:29:13.015Z,33.27
2017-04-09T04:30:12.071Z,28.43
2017-04-09T04:31:11.032Z,29.67
2017-04-09T04:32:10.172Z,31.08
2017-04-09T04:33:09.195Z,32.55
2017-04-09T04:34:08.287Z,33.32
2017-04-09T04:35:07.420Z,29.90
2017-04-09T04:36:06.496Z,29.27
2017-04-09T04:37:05.688Z,33.78
2017-04-09T04:38:05.515Z,29.50
2017-04-09T04:39:05.664Z,28.08
2017-04-09T04:40:04.742Z,28.38
2017-04-09T04:41:03.938Z,30.22
2017-04-09T04:42:03.076Z,27.83
2017-04-09T04:43:02.196Z,29.77
2017-04-09T04:44:01.270Z,29.32
2017-04-09T04:45:00.359Z,28.28
2017-04-09T04:45:59.463Z,33.20
2017-04-09T04:46:59.352Z,30.62
2017-04-09T04:47:58.477Z,31.05
2017-04-09T04:48:57.703Z,29.05
2017-04-09T04:49:56.815Z,29.67
2017-04-09T04:50:56.731Z,35.80
2017-04-09T04:51:55.839Z,36.63
2017-04-09T04:52:54.929Z,39.85
2017-04-09T04:53:54.072Z,26.98
2017-04-09T04:54:53.128Z,27.75
2017-04-09T04:55:52.848Z,27.25
2017-04-09T04:56:51.907Z,40.47
2017-04-09T04:57:51.070Z,31.43
2017-04-09T04:58:50.848Z,28.07
2017-04-09T04:59:49.976Z,29.08
2017-04-09T05:00:49.108Z,31.03
2017-04-09T05:01:48.316Z,34.68
2017-04-09T05:02:47.436Z,29.82
2017-04-09T05:03:46.595Z,34.72
2017-04-09T05:04:45.706Z,32.40
2017-04-09T05:05:44.736Z,34.75
2017-04-09T05:06:43.895Z,33.50
2017-04-09T05:07:42.958Z,32.75
2017-04-09T05:08:42.101Z,31.77
2017-04-09T05:09:41.354Z,35.68
2017-04-09T05:10:41.216Z,30.45
2017-04-09T05:11:40.344Z,32.92
2017-04-09T05:12:39.443Z,32.73
2017-04-09T05:13:38.547Z,26.75
2017-04-09T05:14:37.692Z,31.08
2017-04-09T05:15:36.825Z,33.65
2017-04-09T05:16:35.854Z,25.72
2017-04-09T05:17:34.868Z,30.93
2017-04-09T05:18:34.004Z,30.02
2017-04-09T05:19:33.127Z,26.85
2017-04-09T05:20:32.207Z,30.43
2017-04-09T05:21:31.284Z,25.27
2017-04-09T05:22:30.475Z,23.93
2017-04-09T05:23:29.652Z,29.52
2017-04-09T05:24:28.828Z,28.53
2017-04-09T05:25:27.963Z,28.55
2017-04-09T05:26:27.004Z,31.82
2017-04-09T05:27:26.176Z,26.30
2017-04-09T05:28:25.267Z,31.33
2017-04-09T05:29:25.101Z,30.02
2017-04-09T05:30:24.199Z,31.10
2017-04-09T05:31:23.300Z,31.10
2017-04-09T05:32:22.636Z,30.32
2017-04-09T05:33:21.744Z,33.80
2017-04-09T05:34:20.917Z,28.92
2017-04-09T05:35:20.140Z,30.45
2017-04-09T05:36:19.259Z,37.02
2017-04-09T05:37:18.359Z,36.25
2017-04-09T05:38:17.508Z,33.15
2017-04-09T05:39:17.267Z,30.70
2017-04-09T05:40:16.381Z,40.85
2017-04-09T05:41:15.515Z,32.90
2017-04-09T05:42:14.576Z,28.75
2017-04-09T05:43:13.711Z,32.05
2017-04-09T05:44:13.521Z,35.03
2017-04-09T05:45:13.367Z,33.08
2017-04-09T05:46:13.263Z,32.22
2017-04-09T05:47:12.403Z,33.80
2017-04-09T05:48:12.244Z,29.35
2017-04-09T05:49:12.905Z,35.53
2017-04-09T05:50:12.132Z,34.55
2017-04-09T05:51:11.424Z,28.93
2017-04-09T05:52:10.757Z,30.88
2017-04-09T05:53:11.715Z,32.90
2017-04-09T05:54:10.963Z,33.85
2017-04-09T05:55:10.880Z,37.68
2017-04-09T05:56:09.992Z,30.17
2017-04-09T05:57:09.128Z,28.92
2017-04-09T05:58:08.151Z,33.57
2017-04-09T05:59:07.200Z,28.75
2017-04-09T06:00:06.399Z,41.85
2017-04-09T06:01:05.459Z,32.20
2017-04-09T06:02:05.153Z,45.98
2017-04-09T06:03:04.303Z,30.57
2017-04-09T06:04:04.068Z,31.13
2017-04-09T06:05:03.096Z,34.97
2017-04-09T06:06:02.215Z,31.08
2017-04-09T06:07:01.380Z,31.33
2017-04-09T06:08:00.483Z,39.77
2017-04-09T06:08:59.661Z,34.03
2017-04-09T06:09:58.838Z,30.42
2017-04-09T06:10:58.020Z,37.02
2017-04-09T06:11:57.235Z,32.60
2017-04-09T06:12:57.076Z,32.65
2017-04-09T06:13:56.252Z,31.63
2017-04-09T06:14:55.444Z,41.45
2017-04-09T06:15:54.676Z,37.35
2017-04-09T06:16:54.511Z,35.42
2017-04-09T06:17:53.569Z,34.97
2017-04-09T06:18:52.756Z,37.20
2017-04-09T06:19:51.883Z,36.83
2017-04-09T06:20:50.992Z,33.62
2017-04-09T06:21:50.748Z,42.18
2017-04-09T06:22:49.812Z,32.63
2017-04-09T06:23:48.944Z,35.05
2017-04-09T06:24:48.776Z,34.67
2017-04-09T06:25:47.831Z,33.13
2017-04-09T06:26:46.935Z,37.10
2017-04-09T06:27:46.047Z,35.95
2017-04-09T06:28:45.097Z,36.32
2017-04-09T06:29:44.229Z,36.45
2017-04-09T06:30:44.041Z,44.75
2017-04-09T06:31:43.247Z,45.03
2017-04-09T06:32:42.430Z,40.25
2017-04-09T06:33:41.455Z,39.97
2017-04-09T06:34:40.624Z,45.95
2017-04-09T06:35:43.996Z,50.48
2017-04-09T06:36:43.065Z,40.33
2017-04-09T06:37:42.159Z,46.65
2017-04-09T06:38:41.251Z,39.18
2017-04-09T06:39:40.392Z,43.73
2017-04-09T06:40:39.502Z,41.97
2017-04-09T06:41:38.588Z,37.03
2017-04-09T06:42:37.718Z,40.80
2017-04-09T06:43:36.836Z,38.15
2017-04-09T06:44:36.003Z,39.90
2017-04-09T06:45:35.175Z,36.50
2017-04-09T06:46:34.339Z,37.98
2017-04-09T06:47:33.402Z,38.53
2017-04-09T06:48:32.566Z,42.75
2017-04-09T06:49:32.468Z,38.77
2017-04-09T06:50:32.391Z,43.85
2017-04-09T06:51:31.543Z,41.97
2017-04-09T06:52:31.341Z,40.65
2017-04-09T06:53:31.463Z,38.80
2017-04-09T06:54:30.464Z,35.38
2017-04-09T06:55:29.595Z,37.80
2017-04-09T06:56:29.554Z,42.50
2017-04-09T06:57:28.640Z,46.17
2017-04-09T06:58:28.233Z,41.13
2017-04-09T06:59:27.372Z,41.62
2017-04-09T07:00:26.529Z,41.53
2017-04-09T07:01:26.389Z,34.77
2017-04-09T07:02:26.864Z,34.37
2017-04-09T07:03:26.091Z,31.23
2017-04-09T07:04:25.252Z,33.82
2017-04-09T07:05:25.116Z,30.57
2017-04-09T07:06:24.289Z,32.90
2017-04-09T07:07:24.188Z,28.65
2017-04-09T07:08:23.983Z,27.88
2017-04-09T07:09:23.033Z,28.13
2017-04-09T07:10:22.004Z,29.85
2017-04-09T07:11:21.093Z,23.03
2017-04-09T07:12:20.156Z,25.20
2017-04-09T07:13:19.281Z,28.60
2017-04-09T07:14:18.356Z,31.85
2017-04-09T07:15:17.483Z,34.17
2017-04-09T07:16:16.616Z,28.65
2017-04-09T07:17:15.719Z,30.73
2017-04-09T07:18:14.900Z,31.78
2017-04-09T07:19:14.024Z,29.37
2017-04-09T07:20:12.451Z,28.35
2017-04-09T07:21:11.505Z,27.13
2017-04-09T07:22:10.571Z,24.52
2017-04-09T07:23:10.393Z,29.25
2017-04-09T07:24:09.499Z,33.75
2017-04-09T07:25:08.516Z,31.77
2017-04-09T07:26:07.664Z,31.03
2017-04-09T07:27:06.813Z,31.08
2017-04-09T07:28:05.904Z,30.32
2017-04-09T07:29:05.745Z,33.80
2017-04-09T07:30:05.600Z,31.68
2017-04-09T07:31:04.731Z,30.88
2017-04-09T07:32:04.586Z,30.67
2017-04-09T07:33:03.700Z,28.90
2017-04-09T07:34:03.552Z,29.10
2017-04-09T07:35:02.692Z,30.97
2017-04-09T07:36:02.539Z,26.72
2017-04-09T07:37:01.607Z,30.12
2017-04-09T07:38:00.776Z,25.63
2017-04-09T07:38:59.889Z,30.73
2017-04-09T07:39:59.061Z,31.32
2017-04-09T07:40:58.100Z,32.12
2017-04-09T07:41:57.257Z,32.00
2017-04-09T07:42:57.101Z,32.93
2017-04-09T07:43:56.199Z,30.93
2017-04-09T07:44:55.248Z,33.55
2017-04-09T07:45:54.311Z,32.70
2017-04-09T07:46:53.372Z,30.97
2017-04-09T07:47:53.180Z,29.87
2017-04-09T07:48:52.280Z,31.92
2017-04-09T07:49:51.371Z,29.22
2017-04-09T07:50:50.540Z,31.90
2017-04-09T07:51:49.570Z,28.85
2017-04-09T07:52:48.519Z,32.43
2017-04-09T07:53:47.634Z,32.62
2017-04-09T07:54:47.491Z,39.93
2017-04-09T07:55:46.626Z,29.98
2017-04-09T07:56:45.807Z,32.95
2017-04-09T07:57:44.796Z,31.93
2017-04-09T07:58:43.983Z,30.62
2017-04-09T07:59:43.120Z,31.98
2017-04-09T08:00:43.154Z,26.85
2017-04-09T08:01:42.248Z,33.37
2017-04-09T08:02:41.364Z,34.12
2017-04-09T08:03:40.762Z,28.52
2017-04-09T08:04:40.190Z,42.28
2017-04-09T08:05:39.287Z,31.15
2017-04-09T08:06:38.369Z,29.68
2017-04-09T08:07:37.460Z,29.45
2017-04-09T08:08:36.806Z,33.85
2017-04-09T08:09:35.909Z,34.57
2017-04-09T08:10:35.056Z,37.65
2017-04-09T08:11:34.168Z,37.88
2017-04-09T08:12:33.240Z,39.63
2017-04-09T08:13:32.395Z,33.23
2017-04-09T08:14:31.436Z,35.42
2017-04-09T08:15:30.435Z,37.62
2017-04-09T08:16:30.307Z,39.20
2017-04-09T08:17:29.448Z,38.78
2017-04-09T08:18:28.551Z,32.62
2017-04-09T08:19:27.647Z,37.42
2017-04-09T08:20:26.768Z,39.92
2017-04-09T08:21:25.900Z,33.20
2017-04-09T08:22:24.932Z,33.13
2017-04-09T08:23:24.027Z,41.47
2017-04-09T08:24:23.117Z,32.02
2017-04-09T08:25:22.260Z,30.05
2017-04-09T08:26:21.286Z,39.17
2017-04-09T08:27:20.359Z,29.40
2017-04-09T08:28:19.476Z,34.30
2017-04-09T08:29:18.631Z,29.53
2017-04-09T08:30:17.679Z,37.13
2017-04-09T08:31:16.810Z,34.35
2017-04-09T08:32:15.968Z,40.68
2017-04-09T08:33:15.101Z,31.88
2017-04-09T08:34:14.228Z,34.33
2017-04-09T08:35:13.320Z,31.80
2017-04-09T08:36:12.516Z,34.00
2017-04-09T08:37:11.801Z,28.20
2017-04-09T08:38:11.606Z,36.40
2017-04-09T08:39:11.467Z,39.85
2017-04-09T08:40:10.557Z,31.43
2017-04-09T08:41:09.729Z,35.22
2017-04-09T08:42:08.896Z,28.85
2017-04-09T08:43:08.032Z,32.85
2017-04-09T08:44:07.116Z,28.43
2017-04-09T08:45:06.239Z,30.63
2017-04-09T08:46:05.292Z,33.67
2017-04-09T08:47:04.740Z,28.85
2017-04-09T08:48:04.680Z,31.28
2017-04-09T08:49:05.088Z,29.03
2017-04-09T08:50:04.126Z,37.65
2017-04-09T08:51:03.440Z,28.67
2017-04-09T08:52:05.155Z,28.97
2017-04-09T08:53:05.123Z,26.35
2017-04-09T08:54:04.213Z,29.38
2017-04-09T08:55:04.130Z,27.15
2017-04-09T08:56:03.464Z,30.85
2017-04-09T08:57:02.724Z,30.25
2017-04-09T08:58:01.951Z,35.85
2017-04-09T08:59:01.100Z,42.12
2017-04-09T09:00:00.112Z,30.78
2017-04-09T09:00:59.260Z,30.48
2017-04-09T09:01:58.349Z,26.12
2017-04-09T09:02:57.492Z,27.93
2017-04-09T09:03:56.661Z,27.72
2017-04-09T09:04:56.507Z,26.32
2017-04-09T09:05:55.559Z,31.65
2017-04-09T09:06:54.624Z,29.27
2017-04-09T09:07:53.664Z,29.83
2017-04-09T09:08:52.861Z,29.98
2017-04-09T09:09:52.634Z,26.27
2017-04-09T09:10:51.735Z,29.78
2017-04-09T09:11:51.567Z,27.58
2017-04-09T09:12:50.632Z,29.42
2017-04-09T09:13:49.791Z,26.60
2017-04-09T09:14:49.647Z,28.27
2017-04-09T09:15:48.723Z,28.07
2017-04-09T09:16:47.884Z,33.75
2017-04-09T09:17:46.927Z,31.83
2017-04-09T09:18:46.768Z,29.22
2017-04-09T09:19:45.839Z,31.45
2017-04-09T09:20:44.947Z,31.13
2017-04-09T09:21:44.092Z,30.42
2017-04-09T09:22:43.164Z,30.07
2017-04-09T09:23:42.240Z,29.80
2017-04-09T09:24:41.280Z,30.22
2017-04-09T09:25:40.462Z,29.28
2017-04-09T09:26:39.603Z,32.90
2017-04-09T09:27:38.740Z,31.72
2017-04-09T09:28:39.088Z,32.47
2017-04-09T09:29:38.232Z,26.05
2017-04-09T09:30:38.088Z,25.72
2017-04-09T09:31:37.168Z,34.63
2017-04-09T09:32:36.285Z,24.12
2017-04-09T09:33:35.417Z,31.82
2017-04-09T09:34:34.517Z,18.65
2017-04-09T09:35:33.620Z,25.30
2017-04-09T09:36:33.411Z,25.78
2017-04-09T09:37:33.298Z,29.15
2017-04-09T09:38:32.420Z,26.18
2017-04-09T09:39:31.517Z,29.70
2017-04-09T09:40:30.588Z,30.32
2017-04-09T09:41:29.671Z,28.10
2017-04-09T09:42:28.684Z,24.12
2017-04-09T09:43:27.756Z,24.88
2017-04-09T09:44:26.819Z,28.68
2017-04-09T09:45:25.999Z,24.07
2017-04-09T09:46:25.152Z,26.48
2017-04-09T09:47:24.337Z,25.98
2017-04-09T09:48:23.427Z,26.47
2017-04-09T09:49:22.524Z,22.62
2017-04-09T09:50:21.615Z,24.35
2017-04-09T09:51:20.696Z,28.78
2017-04-09T09:52:19.666Z,25.95
2017-04-09T09:53:18.751Z,23.92
2017-04-09T09:54:18.269Z,25.18
2017-04-09T09:55:18.116Z,20.42
2017-04-09T09:56:17.297Z,19.18
2017-04-09T09:57:16.356Z,23.55
2017-04-09T09:58:15.479Z,25.57
2017-04-09T09:59:14.580Z,31.85
2017-04-09T10:00:14.440Z,23.20
2017-04-09T10:01:13.656Z,22.23
2017-04-09T10:02:13.439Z,28.05
2017-04-09T10:03:12.587Z,22.23
2017-04-09T10:04:11.760Z,24.20
2017-04-09T10:05:10.856Z,24.67
2017-04-09T10:06:10.751Z,23.53
2017-04-09T10:07:09.788Z,19.90
2017-04-09T10:08:08.862Z,20.85
2017-04-09T10:09:08.032Z,25.20
2017-04-09T10:10:07.195Z,22.92
2017-04-09T10:11:06.303Z,23.40
2017-04-09T10:12:06.136Z,22.67
2017-04-09T10:13:05.196Z,28.00
2017-04-09T10:14:04.296Z,20.93
2017-04-09T10:15:03.364Z,24.17
2017-04-09T10:16:02.567Z,22.55
2017-04-09T10:17:01.615Z,21.25
2017-04-09T10:18:02.162Z,23.38
2017-04-09T10:19:01.147Z,27.52
2017-04-09T10:20:00.135Z,31.40
2017-04-09T10:20:59.984Z,27.60
2017-04-09T10:21:59.074Z,23.65
2017-04-09T10:22:58.157Z,23.93
2017-04-09T10:23:57.195Z,26.03
2017-04-09T10:24:57.031Z,23.25
2017-04-09T10:25:56.075Z,24.70
2017-04-09T10:26:55.212Z,19.82
2017-04-09T10:27:55.152Z,24.88
2017-04-09T10:28:54.172Z,24.47
2017-04-09T10:29:53.327Z,19.82
2017-04-09T10:30:52.492Z,19.80
2017-04-09T10:31:51.564Z,23.63
2017-04-09T10:32:51.367Z,23.20
2017-04-09T10:33:50.393Z,24.47
2017-04-09T10:34:49.530Z,26.92
2017-04-09T10:35:48.551Z,19.97
2017-04-09T10:36:47.596Z,20.12
2017-04-09T10:37:46.679Z,24.58
2017-04-09T10:38:45.723Z,26.35
2017-04-09T10:39:45.527Z,23.13
2017-04-09T10:40:44.579Z,28.22
2017-04-09T10:41:44.463Z,21.75
2017-04-09T10:42:43.427Z,31.10
2017-04-09T10:43:42.655Z,33.20
2017-04-09T10:44:41.763Z,24.85
2017-04-09T10:45:40.839Z,25.57
2017-04-09T10:46:39.946Z,30.73
2017-04-09T10:47:39.052Z,27.37
2017-04-09T10:48:38.819Z,29.75
2017-04-09T10:49:37.964Z,24.48
2017-04-09T10:50:37.072Z,26.53
2017-04-09T10:51:36.140Z,31.18
2017-04-09T10:52:35.242Z,24.75
2017-04-09T10:53:34.340Z,28.87
2017-04-09T10:54:34.223Z,22.73
2017-04-09T10:55:33.235Z,21.53
2017-04-09T10:56:33.024Z,22.60
2017-04-09T10:57:32.779Z,21.82
2017-04-09T10:58:31.983Z,20.02
2017-04-09T10:59:31.125Z,22.47
2017-04-09T11:00:30.231Z,19.32
2017-04-09T11:01:29.767Z,19.58
2017-04-09T11:02:29.620Z,24.42
2017-04-09T11:03:28.795Z,19.82
2017-04-09T11:04:27.923Z,22.08
2017-04-09T11:05:26.954Z,19.10
2017-04-09T11:06:25.968Z,20.28
2017-04-09T11:07:25.752Z,19.05
2017-04-09T11:08:25.695Z,24.00
2017-04-09T11:09:24.744Z,23.33
2017-04-09T11:10:23.876Z,20.77
2017-04-09T11:11:22.964Z,19.38
2017-04-09T11:12:22.103Z,19.02
2017-04-09T11:13:21.268Z,17.08
2017-04-09T11:14:20.349Z,19.48
2017-04-09T11:15:19.492Z,20.75
2017-04-09T11:16:18.636Z,19.12
2017-04-09T11:17:17.687Z,27.50
2017-04-09T11:18:16.797Z,19.20
2017-04-09T11:19:15.874Z,18.48
2017-04-09T11:20:14.975Z,20.32
2017-04-09T11:21:14.050Z,18.22
2017-04-09T11:22:13.095Z,17.25
2017-04-09T11:23:12.192Z,15.50
2017-04-09T11:24:11.288Z,20.63
2017-04-09T11:25:10.853Z,17.38
2017-04-09T11:26:10.026Z,23.62
2017-04-09T11:27:08.992Z,17.87
2017-04-09T11:28:08.100Z,23.73
2017-04-09T11:29:07.230Z,18.58
2017-04-09T11:30:07.040Z,18.53
2017-04-09T11:31:06.064Z,18.28
2017-04-09T11:32:05.177Z,19.45
2017-04-09T11:33:05.040Z,26.53
2017-04-09T11:34:04.148Z,20.20
2017-04-09T11:35:03.888Z,21.65
2017-04-09T11:36:03.168Z,18.02
2017-04-09T11:37:02.402Z,18.10
2017-04-09T11:38:02.437Z,18.92
2017-04-09T11:39:01.520Z,15.48
2017-04-09T11:40:00.608Z,17.32
2017-04-09T11:40:59.919Z,16.15
2017-04-09T11:41:59.828Z,15.52
2017-04-09T11:42:59.055Z,21.97
2017-04-09T11:43:58.132Z,15.63
2017-04-09T11:44:57.127Z,19.42
2017-04-09T11:45:56.253Z,17.83
2017-04-09T11:46:55.295Z,18.12
2017-04-09T11:47:54.456Z,25.62
2017-04-09T11:48:53.603Z,22.33
2017-04-09T11:49:53.435Z,16.83
2017-04-09T11:50:52.523Z,20.12
2017-04-09T11:51:51.607Z,18.78
2017-04-09T11:52:50.761Z,19.70
2017-04-09T11:53:49.844Z,19.83
2017-04-09T11:54:48.980Z,20.98
2017-04-09T11:55:48.099Z,19.40
2017-04-09T11:56:47.184Z,16.70
2017-04-09T11:57:46.355Z,19.47
2017-04-09T11:58:46.137Z,17.60
2017-04-09T11:59:45.987Z,20.05
2017-04-09T12:00:45.093Z,24.53
2017-04-09T12:01:44.276Z,18.55
2017-04-09T12:02:43.484Z,19.65
2017-04-09T12:03:43.436Z,29.10
2017-04-09T12:04:42.680Z,21.17
2017-04-09T12:05:41.771Z,20.42
2017-04-09T12:06:40.856Z,19.17
2017-04-09T12:07:39.978Z,21.23
2017-04-09T12:08:38.979Z,18.50
2017-04-09T12:09:38.154Z,22.27
2017-04-09T12:10:38.007Z,20.32
2017-04-09T12:11:37.063Z,20.32
2017-04-09T12:12:36.328Z,19.10
2017-04-09T12:13:35.532Z,17.62
2017-04-09T12:14:34.619Z,23.53
2017-04-09T12:15:33.672Z,20.45
2017-04-09T12:16:32.787Z,20.88
2017-04-09T12:17:32.012Z,19.32
2017-04-09T12:18:31.116Z,20.40
2017-04-09T12:19:30.379Z,17.92
2017-04-09T12:20:30.251Z,24.27
2017-04-09T12:21:29.287Z,20.13
2017-04-09T12:22:28.364Z,21.57
2017-04-09T12:23:27.427Z,20.45
2017-04-09T12:24:26.579Z,24.70
2017-04-09T12:25:25.731Z,24.67
2017-04-09T12:26:24.762Z,21.25
2017-04-09T12:27:23.788Z,24.13
2017-04-09T12:28:22.878Z,24.93
2017-04-09T12:29:22.043Z,24.12
2017-04-09T12:30:21.100Z,21.63
2017-04-09T12:31:20.230Z,19.87
2017-04-09T12:32:20.163Z,27.25
2017-04-09T12:33:19.191Z,21.17
2017-04-09T12:34:18.231Z,19.40
2017-04-09T12:35:17.315Z,28.75
2017-04-09T12:36:16.552Z,18.85
2017-04-09T12:37:16.100Z,23.63
2017-04-09T12:38:15.327Z,19.57
2017-04-09T12:39:15.279Z,19.63
2017-04-09T12:40:14.379Z,18.22
2017-04-09T12:41:13.492Z,23.15
2017-04-09T12:42:13.316Z,22.67
2017-04-09T12:43:12.481Z,20.08